createdAt,value
2022-08-05T00:00:16.205Z,17.67
2022-08-05T00:02:51.345Z,17.67
2022-08-05T00:06:02.681Z,17.15
2022-08-05T00:08:32.476Z,17.58
2022-08-05T00:11:00.756Z,17.65
2022-08-05T00:13:39.314Z,18.58
2022-08-05T00:16:12.270Z,17.80
2022-08-05T00:18:42.187Z,17.75
2022-08-05T00:21:09.987Z,17.90
2022-08-05T00:23:46.643Z,18.60
2022-08-05T00:26:21.976Z,17.90
2022-08-05T00:28:50.039Z,18.05
2022-08-05T00:31:41.282Z,18.08
2022-08-05T00:34:53.351Z,17.83
2022-08-05T00:37:12.745Z,18.15
2022-08-05T00:39:44.077Z,18.17
2022-08-05T00:42:36.696Z,18.48
2022-08-05T00:45:08.802Z,18.42
2022-08-05T00:47:56.220Z,18.73
2022-08-05T00:50:25.292Z,17.85
2022-08-05T00:52:54.882Z,17.88
2022-08-05T00:55:23.049Z,18.08
2022-08-05T00:58:02.229Z,17.83
2022-08-05T01:00:32.156Z,17.23
2022-08-05T01:03:00.887Z,18.63
2022-08-05T01:05:28.486Z,18.42
2022-08-05T01:08:29.899Z,18.45
2022-08-05T01:11:01.086Z,17.45
2022-08-05T01:16:29.252Z,17.48
2022-08-05T01:19:04.255Z,17.33
2022-08-05T01:21:50.887Z,17.98
2022-08-05T01:24:40.239Z,17.88
2022-08-05T01:27:50.487Z,17.73
2022-08-05T01:30:34.099Z,18.48
2022-08-05T01:33:08.617Z,18.20
2022-08-05T01:35:50.887Z,17.80
2022-08-05T01:38:24.867Z,18.00
2022-08-05T01:40:59.504Z,18.17
2022-08-05T01:43:28.340Z,18.17
2022-08-05T01:45:57.202Z,17.85
2022-08-05T01:48:27.575Z,18.23
2022-08-05T01:50:56.997Z,18.52
2022-08-05T01:53:57.213Z,18.27
2022-08-05T01:58:12.556Z,18.23
2022-08-05T01:59:08.427Z,18.70
2022-08-05T02:01:40.344Z,18.65
2022-08-05T02:04:10.201Z,18.60
2022-08-05T02:06:39.229Z,18.33
2022-08-05T02:09:07.483Z,18.20
2022-08-05T02:12:00.648Z,19.02
2022-08-05T02:14:52.338Z,18.65
2022-08-05T02:18:32.146Z,18.20
2022-08-05T02:20:22.754Z,18.77
2022-08-05T02:23:02.071Z,18.15
2022-08-05T02:25:49.117Z,18.33
2022-08-05T02:28:28.929Z,18.15
2022-08-05T02:31:14.287Z,17.88
2022-08-05T02:33:49.087Z,18.15
2022-08-05T02:36:27.557Z,19.15
2022-08-05T02:39:00.209Z,18.92
2022-08-05T02:41:43.228Z,19.20
2022-08-05T02:44:18.060Z,18.40
2022-08-05T02:46:59.747Z,18.50
2022-08-05T02:49:37.143Z,19.10
2022-08-05T02:52:11.621Z,18.40
2022-08-05T02:54:54.781Z,18.98
2022-08-05T02:58:09.941Z,18.67
2022-08-05T03:00:13.412Z,19.70
2022-08-05T03:02:44.094Z,18.85
2022-08-05T03:05:12.864Z,20.40
2022-08-05T03:08:04.323Z,18.92
2022-08-05T03:10:29.686Z,19.48
2022-08-05T03:15:24.327Z,19.20
2022-08-05T03:17:57.847Z,19.20
2022-08-05T03:20:26.497Z,19.65
2022-08-05T03:22:57.500Z,19.13
2022-08-05T03:26:04.027Z,19.00
2022-08-05T03:28:14.600Z,19.48
2022-08-05T03:30:48.553Z,19.67
2022-08-05T03:33:17.226Z,19.92
2022-08-05T03:35:49.913Z,19.95
2022-08-05T03:38:32.854Z,19.17
2022-08-05T03:41:00.725Z,20.02
2022-08-05T03:44:08.040Z,19.55
2022-08-05T03:46:22.720Z,18.77
2022-08-05T03:48:57.161Z,19.80
2022-08-05T03:52:50.622Z,20.08
2022-08-05T03:55:00.349Z,19.10
2022-08-05T03:57:44.930Z,19.40
2022-08-05T04:00:16.312Z,19.77
2022-08-05T04:02:57.750Z,19.85
2022-08-05T04:05:33.850Z,19.23
2022-08-05T04:08:14.614Z,18.83
2022-08-05T04:10:56.587Z,18.23
2022-08-05T04:13:25.115Z,18.42
2022-08-05T04:16:04.210Z,17.58
2022-08-05T04:18:34.556Z,18.17
2022-08-05T04:21:02.280Z,17.98
2022-08-05T04:24:05.931Z,17.48
2022-08-05T04:26:19.207Z,18.48
2022-08-05T04:28:51.349Z,17.63
2022-08-05T04:31:20.130Z,17.50
2022-08-05T04:33:54.893Z,18.38
2022-08-05T04:36:49.845Z,17.90
2022-08-05T04:39:19.527Z,17.58
2022-08-05T04:41:48.190Z,17.80
2022-08-05T04:44:16.226Z,17.23
2022-08-05T04:46:51.596Z,18.00
2022-08-05T04:49:24.640Z,17.40
2022-08-05T04:52:00.184Z,18.08
2022-08-05T04:54:27.698Z,18.95
2022-08-05T04:56:58.943Z,18.40
2022-08-05T04:59:36.831Z,17.77
2022-08-05T05:02:37.403Z,17.35
2022-08-05T05:05:02.144Z,17.45
2022-08-05T05:07:32.359Z,17.77
2022-08-05T05:10:04.420Z,16.85
2022-08-05T05:12:31.751Z,17.33
2022-08-05T05:14:58.783Z,17.35
2022-08-05T05:17:57.142Z,19.40
2022-08-05T05:20:13.937Z,17.73
2022-08-05T05:22:44.140Z,17.88
2022-08-05T05:25:16.648Z,17.67
2022-08-05T05:27:53.562Z,17.73
2022-08-05T05:30:29.275Z,17.40
2022-08-05T05:33:00.385Z,17.67
2022-08-05T05:35:29.044Z,17.70
2022-08-05T05:38:01.389Z,17.40
2022-08-05T05:40:31.414Z,17.08
2022-08-05T05:43:00.246Z,17.40
2022-08-05T05:45:29.771Z,19.20
2022-08-05T05:48:06.265Z,18.05
2022-08-05T05:50:41.149Z,17.17
2022-08-05T05:53:22.811Z,18.65
2022-08-05T07:38:54.950Z,16.75
2022-08-05T07:42:14.650Z,16.75
2022-08-05T07:44:18.364Z,17.35
2022-08-05T07:46:48.404Z,17.48
2022-08-05T07:49:15.793Z,17.10
2022-08-05T07:51:53.306Z,16.90
2022-08-05T07:54:31.446Z,17.50
2022-08-05T07:57:17.965Z,17.23
2022-08-05T07:59:49.843Z,16.75
2022-08-05T08:02:18.081Z,18.45
2022-08-05T08:04:49.626Z,18.52
2022-08-05T08:07:22.515Z,18.10
2022-08-05T08:09:52.339Z,18.77
2022-08-05T08:12:35.456Z,18.15
2022-08-05T08:15:15.444Z,17.90
2022-08-05T08:17:49.681Z,16.60
2022-08-05T08:20:42.704Z,16.77
2022-08-05T08:23:11.639Z,17.20
2022-08-05T08:26:00.953Z,17.70
2022-08-05T08:28:36.631Z,17.25
2022-08-05T08:31:21.222Z,16.73
2022-08-05T08:33:51.474Z,17.65
2022-08-05T08:36:38.127Z,17.10
2022-08-05T08:39:15.824Z,16.65
2022-08-05T08:41:50.885Z,16.60
2022-08-05T08:45:19.289Z,16.13
2022-08-05T08:47:47.436Z,16.80
2022-08-05T08:50:05.915Z,16.73
2022-08-05T08:52:53.293Z,16.15
2022-08-05T08:56:02.421Z,16.77
2022-08-05T08:58:10.712Z,16.40
2022-08-05T09:00:41.470Z,16.08
2022-08-05T09:03:10.494Z,16.20
2022-08-05T09:05:38.406Z,16.30
2022-08-05T09:08:27.427Z,16.52
2022-08-05T09:10:57.689Z,16.20
2022-08-05T09:13:25.358Z,16.15
2022-08-05T09:15:59.677Z,15.90
2022-08-05T09:18:27.243Z,15.85
2022-08-05T09:20:54.501Z,16.45
2022-08-05T09:23:27.113Z,16.08
2022-08-05T09:26:22.287Z,16.13
2022-08-05T09:28:49.695Z,16.60
2022-08-05T09:32:38.756Z,16.30
2022-08-05T09:34:07.458Z,16.60
2022-08-05T09:36:54.989Z,16.70
2022-08-05T09:39:39.368Z,16.25
2022-08-05T09:42:17.427Z,16.63
2022-08-05T09:44:51.986Z,16.45
2022-08-05T09:47:24.761Z,16.30
2022-08-05T09:50:02.019Z,16.13
2022-08-05T09:52:36.425Z,16.05
2022-08-05T09:55:57.261Z,15.98
2022-08-05T09:58:00.371Z,15.90
2022-08-05T10:00:30.464Z,16.15
2022-08-05T10:02:59.007Z,15.88
2022-08-05T10:05:29.332Z,15.40
2022-08-05T10:08:36.481Z,16.08
2022-08-05T10:10:55.275Z,16.40
2022-08-05T10:13:47.586Z,15.75
2022-08-05T10:16:52.384Z,16.20
2022-08-05T10:19:23.836Z,15.95
2022-08-05T10:21:59.459Z,15.70
2022-08-05T10:24:27.429Z,16.05
2022-08-05T10:27:00.261Z,15.90
2022-08-05T10:30:06.770Z,15.75
2022-08-05T10:32:52.563Z,15.95
2022-08-05T10:35:04.776Z,16.08
2022-08-05T10:37:44.505Z,15.98
2022-08-05T10:40:30.505Z,15.38
2022-08-05T10:43:06.855Z,15.52
2022-08-05T10:45:40.275Z,15.57
2022-08-05T10:48:52.984Z,15.57
2022-08-05T10:51:23.208Z,15.63
2022-08-05T10:54:00.967Z,15.30
2022-08-05T10:56:52.800Z,16.20
2022-08-05T11:00:03.552Z,15.75
2022-08-05T11:02:34.732Z,17.05
2022-08-05T11:05:10.257Z,17.45
2022-08-05T11:08:21.663Z,17.15
2022-08-05T11:11:00.997Z,17.00
2022-08-05T11:13:57.618Z,16.65
2022-08-05T11:16:47.415Z,15.48
2022-08-05T11:20:16.465Z,17.17
2022-08-05T11:22:42.836Z,16.40
2022-08-05T11:26:04.686Z,16.10
2022-08-05T11:28:24.504Z,15.57
2022-08-05T11:30:58.403Z,15.70
2022-08-05T11:33:46.005Z,15.52
2022-08-05T11:36:34.045Z,15.85
2022-08-05T11:39:09.830Z,15.50
2022-08-05T11:42:00.797Z,16.08
2022-08-05T11:44:53.048Z,16.08
2022-08-05T11:47:48.697Z,16.17
2022-08-05T11:50:14.122Z,15.75
2022-08-05T11:52:43.867Z,16.10
2022-08-05T11:55:12.686Z,16.33
2022-08-05T11:58:09.677Z,16.77
2022-08-05T12:00:38.414Z,15.80
2022-08-05T12:03:29.160Z,16.17
2022-08-05T12:06:06.627Z,15.85
2022-08-05T12:08:50.015Z,15.93
2022-08-05T12:11:28.267Z,16.23
2022-08-05T12:14:08.562Z,16.20
2022-08-05T12:16:45.067Z,15.73
2022-08-05T12:20:26.512Z,15.80
2022-08-05T12:22:01.285Z,15.68
2022-08-05T12:24:28.535Z,16.08
2022-08-05T12:26:57.311Z,16.27
2022-08-05T12:29:26.402Z,16.55
2022-08-05T12:31:55.904Z,15.93
2022-08-05T12:34:28.946Z,15.90
2022-08-05T12:37:03.439Z,15.83
2022-08-05T12:39:37.086Z,15.73
2022-08-05T12:42:14.705Z,16.23
2022-08-05T12:44:44.727Z,16.20
2022-08-05T12:47:17.180Z,16.58
2022-08-05T12:52:35.398Z,16.83
2022-08-05T12:55:28.362Z,15.65
2022-08-05T12:58:38.748Z,16.08
2022-08-05T13:02:03.555Z,16.00
2022-08-05T13:03:41.928Z,16.25
2022-08-05T13:06:17.673Z,16.27
2022-08-05T13:08:51.834Z,16.27
2022-08-05T13:12:01.920Z,16.15
2022-08-05T13:14:36.341Z,16.52
2022-08-05T13:17:31.693Z,16.25
2022-08-05T13:20:12.681Z,16.45
2022-08-05T13:22:43.548Z,16.17
2022-08-05T13:25:19.026Z,16.33
2022-08-05T13:27:51.427Z,16.33
2022-08-05T13:30:34.476Z,16.35
2022-08-05T13:33:04.257Z,16.40
2022-08-05T13:35:47.418Z,16.20
2022-08-05T13:38:28.447Z,16.75
2022-08-05T13:41:01.194Z,15.98
2022-08-05T13:43:44.434Z,16.50
2022-08-05T13:46:13.916Z,16.75
2022-08-05T13:48:58.155Z,16.40
2022-08-05T13:51:36.469Z,16.08
2022-08-05T13:54:11.889Z,16.83
2022-08-05T13:56:44.909Z,16.13
2022-08-05T13:59:19.551Z,16.20
2022-08-05T14:01:57.938Z,16.33
2022-08-05T14:04:52.716Z,16.20
2022-08-05T14:07:55.796Z,16.45
2022-08-05T14:10:10.476Z,16.35
2022-08-05T14:12:38.742Z,16.30
2022-08-05T14:16:08.865Z,16.75
2022-08-05T14:17:55.088Z,17.10
2022-08-05T14:20:27.801Z,16.37
2022-08-05T14:22:55.155Z,15.90
2022-08-05T14:25:27.946Z,17.95
2022-08-05T14:27:56.202Z,17.27
2022-08-05T14:30:26.692Z,17.83
2022-08-05T14:32:55.293Z,17.10
2022-08-05T14:35:24.141Z,16.80
2022-08-05T14:38:05.136Z,17.00
2022-08-05T14:40:32.594Z,17.25
2022-08-05T14:43:01.361Z,17.42
2022-08-05T14:45:28.499Z,17.13
2022-08-05T14:48:04.271Z,16.80
2022-08-05T14:50:37.258Z,16.77
2022-08-05T14:53:08.571Z,16.73
2022-08-05T14:55:39.487Z,17.55
2022-08-05T14:58:10.850Z,17.05
2022-08-05T15:00:58.374Z,16.85
2022-08-05T15:03:33.216Z,16.50
2022-08-05T15:06:08.331Z,16.33
2022-08-05T15:08:59.552Z,17.33
2022-08-05T15:11:51.490Z,17.52
2022-08-05T15:14:33.471Z,17.75
2022-08-05T15:17:03.970Z,17.50
2022-08-05T15:19:33.062Z,17.80
2022-08-05T15:22:01.411Z,17.60
2022-08-05T15:24:29.056Z,17.75
2022-08-05T15:26:57.036Z,17.80
2022-08-05T15:29:30.028Z,17.25
2022-08-05T15:32:03.363Z,16.85
2022-08-05T15:34:33.869Z,17.02
2022-08-05T15:37:06.289Z,17.75
2022-08-05T15:41:01.710Z,18.10
2022-08-05T15:42:50.444Z,16.90
2022-08-05T15:45:11.475Z,17.25
2022-08-05T15:47:39.650Z,16.83
2022-08-05T15:50:08.326Z,17.33
2022-08-05T15:52:53.029Z,17.25
2022-08-05T15:55:25.177Z,16.15
2022-08-05T15:58:16.581Z,16.02
2022-08-05T16:01:04.089Z,16.70
2022-08-05T16:03:32.822Z,15.93
2022-08-05T16:06:01.079Z,16.80
2022-08-05T16:08:30.403Z,16.90
2022-08-05T16:10:58.770Z,17.23
2022-08-05T16:13:34.229Z,17.17
2022-08-05T16:16:05.500Z,17.50
2022-08-05T16:18:33.248Z,17.73
2022-08-05T16:21:04.196Z,17.70
2022-08-05T16:23:32.908Z,18.48
2022-08-05T16:26:20.087Z,17.48
2022-08-05T16:28:54.475Z,18.02
2022-08-05T16:31:22.022Z,18.05
2022-08-05T16:33:49.783Z,18.20
2022-08-05T16:36:20.468Z,17.63
2022-08-05T16:38:54.453Z,17.35
2022-08-05T16:42:14.526Z,17.38
2022-08-05T16:44:17.511Z,17.33
2022-08-05T16:46:55.652Z,16.50
2022-08-05T16:49:24.211Z,17.00
2022-08-05T16:51:55.003Z,17.00
2022-08-05T16:54:28.976Z,17.10
2022-08-05T16:56:57.463Z,16.77
2022-08-05T16:59:25.099Z,16.25
2022-08-05T17:01:55.812Z,16.27
2022-08-05T17:04:28.342Z,16.00
2022-08-05T17:07:03.633Z,16.40
2022-08-05T17:09:57.219Z,16.17
2022-08-05T17:12:50.608Z,16.42
2022-08-05T17:15:15.478Z,16.92
2022-08-05T17:17:51.265Z,16.20
2022-08-05T17:20:22.383Z,16.67
2022-08-05T17:22:55.402Z,17.50
2022-08-05T17:25:39.208Z,17.38
2022-08-05T17:28:09.165Z,16.75
2022-08-05T17:30:42.589Z,16.10
2022-08-05T17:33:18.745Z,16.60
2022-08-05T17:36:08.863Z,15.77
2022-08-05T17:38:34.468Z,15.93
2022-08-05T17:41:02.184Z,16.15
2022-08-05T17:43:47.218Z,16.13
2022-08-05T17:46:18.407Z,16.08
2022-08-05T17:48:47.578Z,16.15
2022-08-05T17:51:21.728Z,15.85
2022-08-05T17:53:50.910Z,15.68
2022-08-05T17:56:22.748Z,15.95
2022-08-05T17:58:51.205Z,15.57
2022-08-05T18:01:19.704Z,15.48
2022-08-05T18:03:59.009Z,15.57
2022-08-05T18:06:31.878Z,15.90
2022-08-05T18:08:59.555Z,16.55
2022-08-05T18:11:33.047Z,15.45
2022-08-05T18:14:06.718Z,15.30
2022-08-05T18:16:35.430Z,15.30
2022-08-05T18:19:14.157Z,15.32
2022-08-05T18:22:08.541Z,15.40
2022-08-05T18:24:28.336Z,15.45
2022-08-05T18:26:55.391Z,15.40
2022-08-05T18:29:40.859Z,15.48
2022-08-05T18:32:13.106Z,15.77
2022-08-05T18:34:42.751Z,15.35
2022-08-05T18:37:12.611Z,16.42
2022-08-05T18:40:33.907Z,15.88
2022-08-05T18:42:31.037Z,17.08
2022-08-05T18:44:58.076Z,16.60
2022-08-05T18:47:27.152Z,15.95
2022-08-05T18:50:15.521Z,15.95
2022-08-05T18:52:50.805Z,16.88
2022-08-05T18:55:19.198Z,16.52
2022-08-05T18:57:52.559Z,16.17
2022-08-05T19:00:29.207Z,16.90
2022-08-05T19:03:03.859Z,17.05
2022-08-05T19:06:11.161Z,16.48
2022-08-05T19:08:19.162Z,16.50
2022-08-05T19:10:50.120Z,16.20
2022-08-05T19:13:17.573Z,16.40
2022-08-05T19:15:57.845Z,16.50
2022-08-05T19:18:27.694Z,16.63
2022-08-05T19:20:55.868Z,16.13
2022-08-05T19:24:08.004Z,16.13
2022-08-05T19:26:11.804Z,17.25
2022-08-05T19:28:42.341Z,17.20
2022-08-05T19:31:13.653Z,16.77
2022-08-05T19:36:25.392Z,16.25
2022-08-05T19:38:54.732Z,16.15
2022-08-05T19:42:05.549Z,16.52
2022-08-05T19:44:12.794Z,16.73
2022-08-05T19:46:41.714Z,17.00
2022-08-05T19:49:12.552Z,17.10
2022-08-05T19:52:04.588Z,18.05
2022-08-05T19:54:34.218Z,17.00
2022-08-05T19:57:06.687Z,17.42
2022-08-05T19:59:56.583Z,16.63
2022-08-05T20:02:26.279Z,17.00
2022-08-05T20:04:55.474Z,17.52
2022-08-05T20:07:46.956Z,16.83
2022-08-05T20:10:15.582Z,17.63
2022-08-05T20:12:46.343Z,18.00
2022-08-05T20:15:48.288Z,17.63
2022-08-05T20:18:10.384Z,17.67
2022-08-05T20:20:56.466Z,18.35
2022-08-05T20:23:40.657Z,17.55
2022-08-05T20:26:16.259Z,18.45
2022-08-05T20:28:46.017Z,19.05
2022-08-05T20:31:14.235Z,19.13
2022-08-05T20:33:44.829Z,19.08
2022-08-05T20:36:12.454Z,18.95
2022-08-05T20:38:53.366Z,19.40
2022-08-05T20:41:23.890Z,19.50
2022-08-05T20:43:59.192Z,19.50
2022-08-05T20:46:30.322Z,19.75
2022-08-05T20:48:58.839Z,19.67
2022-08-05T20:51:25.809Z,19.10
2022-08-05T20:53:56.460Z,19.40
2022-08-05T20:56:32.990Z,18.98
2022-08-05T20:59:11.356Z,19.45
2022-08-05T21:01:47.210Z,20.05
2022-08-05T21:04:14.417Z,19.65
2022-08-05T21:06:45.385Z,20.85
2022-08-05T21:09:16.465Z,20.67
2022-08-05T21:12:09.679Z,20.83
2022-08-05T21:14:34.628Z,21.17
2022-08-05T21:17:05.375Z,22.63
2022-08-05T21:19:47.311Z,23.42
2022-08-05T21:22:18.625Z,24.27
2022-08-05T21:24:51.691Z,28.45
2022-08-05T21:27:24.609Z,31.42
2022-08-05T21:29:54.202Z,30.23
2022-08-05T21:32:26.722Z,29.75
2022-08-05T21:35:16.795Z,33.38
2022-08-05T21:37:47.200Z,32.70
2022-08-05T21:40:16.666Z,32.40
2022-08-05T21:42:45.658Z,35.13
2022-08-05T21:45:17.659Z,35.38
2022-08-05T21:47:57.231Z,36.97
2022-08-05T21:50:28.156Z,37.13
2022-08-05T21:52:59.139Z,38.40
2022-08-05T21:56:01.334Z,37.03
2022-08-05T21:58:19.859Z,37.17
2022-08-05T22:00:51.335Z,34.95
2022-08-05T22:03:18.613Z,33.65
2022-08-05T22:06:06.463Z,33.90
2022-08-05T22:08:35.526Z,37.30
2022-08-05T22:11:02.574Z,31.35
2022-08-05T22:14:31.292Z,31.77
2022-08-05T22:16:41.199Z,31.35
2022-08-05T22:19:57.339Z,29.60
2022-08-05T22:21:54.931Z,28.80
2022-08-05T22:24:52.082Z,27.95
2022-08-05T22:28:08.707Z,28.48
2022-08-05T22:30:25.083Z,27.90
2022-08-05T22:33:02.030Z,26.40
2022-08-05T22:35:48.076Z,29.75
2022-08-05T22:38:16.462Z,34.70
2022-08-05T22:40:49.590Z,40.03
2022-08-05T22:43:37.311Z,45.35
2022-08-05T22:46:12.184Z,46.10
2022-08-05T22:48:41.969Z,47.92
2022-08-05T22:51:22.341Z,46.78
2022-08-05T22:53:51.905Z,49.10
2022-08-05T22:56:30.621Z,51.35
2022-08-05T22:59:04.677Z,65.30
2022-08-05T23:02:04.530Z,48.88
2022-08-05T23:04:34.025Z,48.28
2022-08-05T23:07:01.148Z,46.88
2022-08-05T23:09:58.141Z,47.63
2022-08-05T23:12:18.095Z,46.67
2022-08-05T23:14:45.317Z,46.47
2022-08-05T23:17:34.450Z,47.85
2022-08-05T23:20:16.760Z,49.45
2022-08-05T23:22:47.151Z,49.15
2022-08-05T23:25:17.605Z,46.88
2022-08-05T23:28:02.011Z,43.55
2022-08-05T23:30:31.177Z,42.50
2022-08-05T23:32:58.913Z,40.42
2022-08-05T23:35:28.560Z,38.33
2022-08-05T23:38:01.397Z,37.60
2022-08-05T23:40:28.486Z,37.45
2022-08-05T23:42:55.506Z,34.58
2022-08-05T23:45:23.730Z,35.25
2022-08-05T23:47:53.832Z,36.30
2022-08-05T23:50:26.717Z,36.72
2022-08-05T23:52:55.421Z,33.13
2022-08-05T23:55:24.678Z,31.85
2022-08-05T23:57:58.310Z,28.95
